Terminal Aerodrome Forecast
Issued by NWS Indianapolis, IN

Home | Current Version | Previous Version | Text Only | Print | Product List | Glossary On
Versions: 1 2 3 4 5 6 7 8 9 10 11 12 13 14 15 16 17 18 19 20 21 22 23 24 25 26 27 28 29 30
000
FTUS43 KIND 211100
TAFIND
TAF
KIND 211120Z 2112/2218 24012G18KT P6SM SKC
     FM211500 25020G32KT P6SM SCT100
     FM211800 26023G39KT P6SM SCT100
     FM220000 26012G18KT P6SM SCT050 BKN100
     FM220200 27010KT P6SM OVC050
     FM221500 28018G28KT P6SM BKN050=

USA.gov is the U.S. government's official web portal to all federal, state and local government web resources and services.